»·PEaware :: QXE15 KTMK-KSFO

QXE15 :: KTMK-KSFO

FLIGHT INFORMATION

Flight Status: Arrived
Operator:
Horizon Air
More flights by this operator :: More flights under this callsign
Pilot: Daniel E. (20059)
Aircraft: AIRBUS A320
(A320)
More flights by this aircraft type
Origin: KTMK Tillamook
United States
Destination: KSFO San Francisco Intl
United States
More flights between these airports :: More routes between these airports
Route: +FETUJ3 FETUJ RBG STINS3
File this flight plan on PilotEdge
Remarks:
Altitude:
(Current/Filed)
33,000ft
Speed:
(Current/Filed)
450kts
Departed: 11-Oct-20 10:43 AM
Arrived: 11-Oct-20 12:10 PM
Distance/Time
Traveled:
6780nm/1:26
Distance/Time
To Go:
Arrived

Flight Plot

Page will automatically refresh every two minutes.

Flight plan parsing failed; only flown route is shown


Map Options




Map Legend


Flown Route
Filed Route
Departure Airport
Arrival Airport
Navaid (VOR, NDB)
Fix

Horizontal Profiles

Position Reports

Time Latitude Longitude Heading Altitude Ground
Speed
11-Oct-20 10:26 45.425800 -123.814545 325 35ft 0kts
11-Oct-20 10:27 45.425800 -123.814545 325 35ft 0kts
11-Oct-20 10:28 45.425800 -123.814545 325 35ft 0kts
11-Oct-20 10:29 45.425800 -123.814545 325 35ft 0kts
11-Oct-20 10:30 45.425519 -123.814265 325 36ft 0kts
11-Oct-20 10:31 45.425519 -123.814265 325 36ft 0kts
11-Oct-20 10:32 45.425519 -123.814265 325 36ft 0kts
11-Oct-20 10:33 45.425626 -123.814432 303 35ft 6kts
11-Oct-20 10:34 45.424802 -123.813922 120 37ft 10kts
11-Oct-20 10:35 45.423072 -123.809991 148 44ft 7kts
11-Oct-20 10:36 45.420881 -123.812927 303 41ft 14kts
11-Oct-20 10:37 45.419714 -123.816696 229 36ft 11kts
11-Oct-20 10:38 45.416625 -123.816958 166 39ft 14kts
11-Oct-20 10:39 45.413285 -123.813270 143 44ft 12kts
11-Oct-20 10:40 45.411827 -123.812104 124 47ft 0kts
11-Oct-20 10:41 45.411768 -123.811931 109 47ft 8kts
11-Oct-20 10:42 45.422642 -123.817838 335 55ft 160kts
11-Oct-20 10:43 45.470103 -123.846786 330 3953ft 199kts
11-Oct-20 10:44 45.527617 -123.879478 330 7410ft 246kts
11-Oct-20 10:45 45.591729 -123.916472 332 11321ft 269kts
11-Oct-20 10:46 45.658646 -123.989543 288 12566ft 324kts
11-Oct-20 10:47 45.635723 -124.109221 227 15053ft 353kts
11-Oct-20 10:48 45.534478 -124.133387 168 16906ft 421kts
11-Oct-20 10:49 45.426054 -124.055645 153 18898ft 453kts
11-Oct-20 10:50 45.323085 -123.947939 148 20979ft 463kts
11-Oct-20 10:51 45.217719 -123.834220 149 22776ft 494kts
11-Oct-20 10:52 45.094648 -123.783782 188 22992ft 448kts
11-Oct-20 10:53 44.969834 -123.770806 185 22993ft 453kts
11-Oct-20 10:54 44.843220 -123.747892 182 24602ft 472kts
11-Oct-20 10:55 44.710847 -123.718759 182 26634ft 492kts
11-Oct-20 10:56 44.573745 -123.686022 181 28597ft 503kts
11-Oct-20 10:57 44.434989 -123.652315 181 30301ft 511kts
11-Oct-20 10:58 44.294864 -123.617911 181 32235ft 506kts
11-Oct-20 10:59 44.156478 -123.584165 181 33036ft 512kts
11-Oct-20 11:00 44.016134 -123.550053 181 33070ft 510kts
11-Oct-20 11:01 43.876487 -123.516432 180 33057ft 512kts
11-Oct-20 11:02 43.736404 -123.482952 180 33073ft 510kts
11-Oct-20 11:03 43.596750 -123.449805 180 33079ft 509kts
11-Oct-20 11:04 43.457146 -123.416814 180 33061ft 511kts
11-Oct-20 11:05 43.317121 -123.383799 180 33072ft 510kts
11-Oct-20 11:06 43.177014 -123.355875 187 33071ft 501kts
11-Oct-20 11:07 43.038829 -123.351812 190 33255ft 498kts
11-Oct-20 11:08 42.901753 -123.349174 189 33252ft 491kts
11-Oct-20 11:09 42.765009 -123.346269 189 33238ft 494kts
11-Oct-20 11:10 42.628146 -123.343268 189 33258ft 492kts
11-Oct-20 11:11 42.490574 -123.340203 189 33257ft 496kts
11-Oct-20 11:12 42.353146 -123.337100 189 33225ft 497kts
11-Oct-20 11:13 42.214688 -123.334038 189 33205ft 497kts
11-Oct-20 11:14 42.075967 -123.331137 188 33199ft 498kts
11-Oct-20 11:15 41.937719 -123.328333 188 33239ft 500kts
11-Oct-20 11:16 41.798237 -123.325362 188 33219ft 500kts
11-Oct-20 11:17 41.659053 -123.322564 188 33233ft 499kts
11-Oct-20 11:18 41.519966 -123.319808 188 33162ft 503kts
11-Oct-20 11:19 41.382234 -123.317056 188 33235ft 488kts
11-Oct-20 11:20 41.246531 -123.314432 188 33230ft 484kts
11-Oct-20 11:21 41.113566 -123.312027 187 33202ft 482kts
11-Oct-20 11:22 40.980337 -123.309410 188 33183ft 481kts
11-Oct-20 11:23 40.846969 -123.306988 188 33202ft 478kts
11-Oct-20 11:24 40.713879 -123.304642 187 33184ft 482kts
11-Oct-20 11:25 40.579697 -123.302099 187 32326ft 485kts
11-Oct-20 11:26 40.445409 -123.299577 186 31218ft 486kts
11-Oct-20 11:27 40.309728 -123.296987 186 30009ft 483kts
11-Oct-20 11:28 40.180484 -123.294469 186 28848ft 459kts
11-Oct-20 11:29 40.053718 -123.292234 186 27670ft 452kts
11-Oct-20 11:30 39.928633 -123.290012 185 26511ft 449kts
11-Oct-20 11:31 39.802949 -123.287770 185 25308ft 451kts
11-Oct-20 11:32 39.679207 -123.285518 184 24252ft 450kts
11-Oct-20 11:33 39.549779 -123.283279 184 24182ft 467kts
11-Oct-20 11:34 39.421540 -123.280881 184 24168ft 465kts
11-Oct-20 11:36 39.292752 -123.278535 184 24159ft 463kts
11-Oct-20 11:37 39.164549 -123.276277 184 24152ft 460kts
11-Oct-20 11:38 39.037486 -123.261844 168 23918ft 474kts
11-Oct-20 11:39 38.919692 -123.213458 165 22793ft 426kts
11-Oct-20 11:40 38.808898 -123.167413 165 21573ft 417kts
11-Oct-20 11:41 38.701470 -123.123226 164 20265ft 400kts
11-Oct-20 11:42 38.597714 -123.080580 165 18868ft 389kts
11-Oct-20 11:43 38.495562 -123.038598 164 17777ft 384kts
11-Oct-20 11:44 38.395043 -122.997296 164 16784ft 378kts
11-Oct-20 11:45 38.295961 -122.956552 164 16173ft 376kts
11-Oct-20 11:46 38.197612 -122.916121 164 16161ft 375kts
11-Oct-20 11:47 38.099055 -122.872733 151 16130ft 377kts
11-Oct-20 11:48 38.023456 -122.782424 133 14769ft 372kts
11-Oct-20 11:49 37.951259 -122.688170 133 13364ft 373kts
11-Oct-20 11:50 37.878677 -122.596405 133 11917ft 364kts
11-Oct-20 11:51 37.808356 -122.507282 125 11171ft 355kts
11-Oct-20 11:52 37.754816 -122.418400 123 10294ft 298kts
11-Oct-20 11:52 37.715867 -122.354414 123 8955ft 261kts
11-Oct-20 11:53 37.672870 -122.283327 123 7382ft 250kts
11-Oct-20 11:54 37.632670 -122.215174 123 6121ft 224kts
11-Oct-20 11:55 37.595801 -122.152738 123 5980ft 224kts
11-Oct-20 11:56 37.559035 -122.088912 123 5295ft 226kts
11-Oct-20 11:57 37.523164 -122.024824 123 4056ft 223kts
11-Oct-20 11:58 37.487786 -121.961010 123 3938ft 223kts
11-Oct-20 11:59 37.449352 -121.900757 156 3921ft 226kts
11-Oct-20 12:00 37.396829 -121.928802 257 3933ft 227kts
11-Oct-20 12:01 37.421671 -121.995295 315 3934ft 221kts
11-Oct-20 12:02 37.465580 -122.051168 315 3935ft 231kts
11-Oct-20 12:03 37.508565 -122.110210 302 3937ft 230kts
11-Oct-20 12:04 37.536271 -122.176955 295 3498ft 202kts
11-Oct-20 12:05 37.560629 -122.237313 298 2217ft 167kts
11-Oct-20 12:06 37.580975 -122.286023 297 1273ft 150kts
11-Oct-20 12:07 37.600626 -122.332265 297 504ft 151kts
11-Oct-20 12:08 37.618613 -122.374889 298 17ft 67kts
11-Oct-20 12:09 37.619200 -122.380015 240 20ft 16kts
11-Oct-20 12:10 37.618458 -122.382153 132 17ft 0kts
11-Oct-20 12:11 0.000408 0.013975 0 8ft 0kts
11-Oct-20 12:12 0.000408 0.013975 0 8ft 0kts
11-Oct-20 12:13 0.000408 0.013975 0 8ft 0kts
11-Oct-20 12:14 0.000408 0.013975 0 8ft 0kts
11-Oct-20 12:15 0.000408 0.013975 0 8ft 0kts
11-Oct-20 12:16 0.000408 0.013975 0 8ft 0kts
11-Oct-20 12:17 0.000408 0.013975 0 8ft 0kts
11-Oct-20 12:18 0.000408 0.013975 0 8ft 0kts
11-Oct-20 12:19 0.000408 0.013975 0 8ft 0kts
11-Oct-20 12:20 0.000408 0.013975 0 8ft 0kts
11-Oct-20 12:21 0.000408 0.013975 0 8ft 0kts
11-Oct-20 12:22 0.000408 0.013975 0 8ft 0kts
11-Oct-20 12:23 0.000408 0.013975 0 8ft 0kts

Navigation Log

Ident Type
Flight plan parsing failed, navigation log unavailable